createdAt,value
2023-04-22T00:00:30.241Z,1008.01
2023-04-22T00:10:30.486Z,1007.99
2023-04-22T00:20:30.709Z,1007.88
2023-04-22T00:30:30.955Z,1007.86
2023-04-22T00:40:31.230Z,1007.80
2023-04-22T00:50:31.332Z,1007.85
2023-04-22T01:00:31.374Z,1007.96
2023-04-22T01:10:31.599Z,1007.94
2023-04-22T01:20:31.952Z,1007.84
2023-04-22T01:30:32.111Z,1007.77
2023-04-22T01:40:32.110Z,1007.85
2023-04-22T01:50:32.335Z,1007.90
2023-04-22T02:00:32.544Z,1007.82
2023-04-22T02:10:32.823Z,1007.86
2023-04-22T02:20:32.824Z,1007.91
2023-04-22T02:30:33.075Z,1007.94
2023-04-22T02:40:33.294Z,1007.88
2023-04-22T02:50:33.556Z,1007.82
2023-04-22T03:00:33.783Z,1007.97
2023-04-22T03:10:34.021Z,1007.97
2023-04-22T03:20:34.223Z,1007.90
2023-04-22T03:30:34.502Z,1008.00
2023-04-22T03:40:34.698Z,1007.92
2023-04-22T03:50:34.967Z,1007.90
2023-04-22T04:00:34.978Z,1007.95
2023-04-22T04:10:35.232Z,1007.88
2023-04-22T04:20:35.444Z,1007.96
2023-04-22T04:30:35.729Z,1008.09
2023-04-22T04:40:35.734Z,1008.16
2023-04-22T04:50:35.987Z,1008.18
2023-04-22T05:00:36.190Z,1008.27
2023-04-22T05:10:36.463Z,1008.23
2023-04-22T05:20:36.490Z,1008.33
2023-04-22T05:30:36.850Z,1008.44
2023-04-22T05:40:36.847Z,1008.53
2023-04-22T05:50:37.124Z,1008.53
2023-04-22T06:00:37.118Z,1008.47
2023-04-22T06:10:37.369Z,1008.59
2023-04-22T06:20:37.600Z,1008.78
2023-04-22T06:30:37.844Z,1008.86
2023-04-22T06:40:38.046Z,1008.88
2023-04-22T06:50:38.331Z,1008.90
2023-04-22T07:00:38.322Z,1008.80
2023-04-22T07:10:38.608Z,1008.81
2023-04-22T07:20:38.776Z,1008.66
2023-04-22T07:30:39.152Z,1008.55
2023-04-22T07:40:39.180Z,1008.45
2023-04-22T07:50:39.531Z,1008.45
2023-04-22T08:00:39.563Z,1008.32
2023-04-22T08:10:39.805Z,1008.33
2023-04-22T08:20:40.061Z,1008.16
2023-04-22T08:30:40.392Z,1008.17
2023-04-22T08:40:40.375Z,1008.11
2023-04-22T08:50:40.643Z,1008.10
2023-04-22T09:00:40.858Z,1008.01
2023-04-22T09:10:41.219Z,1007.90
2023-04-22T09:20:41.224Z,1007.88
2023-04-22T09:30:41.519Z,1007.93
2023-04-22T09:40:41.643Z,1007.91
2023-04-22T09:50:41.740Z,1007.72
2023-04-22T10:00:41.766Z,1007.62
2023-04-22T10:10:42.018Z,1007.74
2023-04-22T10:20:42.235Z,1007.80
2023-04-22T10:30:42.644Z,1007.83
2023-04-22T10:40:42.605Z,1007.69
2023-04-22T10:50:42.856Z,1007.57
2023-04-22T11:00:53.251Z,1007.56
2023-04-22T11:10:44.867Z,1007.61
2023-04-22T11:20:43.536Z,1007.58
2023-04-22T11:30:43.531Z,1007.43
2023-04-22T11:40:46.397Z,1007.38
2023-04-22T11:50:43.860Z,1007.34
2023-04-22T12:00:44.256Z,1007.26
2023-04-22T12:10:44.310Z,1007.08
2023-04-22T12:20:44.819Z,1007.07
2023-04-22T12:30:44.641Z,1007.08
2023-04-22T12:40:44.926Z,1007.07
2023-04-22T12:50:44.929Z,1007.07
2023-04-22T13:00:45.169Z,1007.13
2023-04-22T13:10:45.395Z,1007.08
2023-04-22T13:20:48.696Z,1006.99
2023-04-22T13:30:45.694Z,1007.00
2023-04-22T13:40:46.003Z,1007.05
2023-04-22T13:50:46.016Z,1006.87
2023-04-22T14:00:46.440Z,1006.91
2023-04-22T14:10:46.460Z,1007.03
2023-04-22T14:20:46.736Z,1007.04
2023-04-22T14:30:46.799Z,1007.01
2023-04-22T14:40:46.907Z,1006.96
2023-04-22T14:50:46.915Z,1006.99
2023-04-22T15:00:47.185Z,1007.00
2023-04-22T15:10:47.257Z,1007.07
2023-04-22T15:20:47.354Z,1007.00
2023-04-22T15:30:47.373Z,1007.10
2023-04-22T15:40:47.605Z,1007.22
2023-04-22T15:50:47.847Z,1007.17
2023-04-22T16:00:48.146Z,1007.17
2023-04-22T16:10:48.332Z,1007.26
2023-04-22T16:20:48.559Z,1007.42
2023-04-22T16:30:48.776Z,1007.61
2023-04-22T16:40:49.052Z,1007.69
2023-04-22T16:50:49.053Z,1007.80
2023-04-22T17:00:49.294Z,1007.79
2023-04-22T17:10:49.523Z,1007.98
2023-04-22T17:20:49.773Z,1008.00
2023-04-22T17:30:49.962Z,1007.92
2023-04-22T17:40:50.252Z,1008.03
2023-04-22T17:50:50.290Z,1007.95
2023-04-22T18:00:50.574Z,1007.69
2023-04-22T18:10:50.765Z,1007.82
2023-04-22T18:20:50.989Z,1007.94
2023-04-22T18:30:52.324Z,1008.05
2023-04-22T18:40:51.369Z,1008.19
2023-04-22T18:50:51.386Z,1008.33
2023-04-22T19:00:51.632Z,1008.41
2023-04-22T19:10:51.847Z,1008.59
2023-04-22T19:20:52.091Z,1008.59
2023-04-22T19:30:52.373Z,1008.46
2023-04-22T19:40:52.669Z,1008.28
2023-04-22T19:50:52.676Z,1008.24
2023-04-22T20:00:53.004Z,1008.28
2023-04-22T20:10:53.216Z,1008.08
2023-04-22T20:20:54.448Z,1008.27
2023-04-22T20:30:53.579Z,1008.31
2023-04-22T20:40:53.714Z,1008.34
2023-04-22T20:50:53.726Z,1008.10
2023-04-22T21:00:53.996Z,1008.10
2023-04-22T21:10:54.162Z,1008.25
2023-04-22T21:20:54.445Z,1008.27
2023-04-22T21:30:54.506Z,1008.45
2023-04-22T21:40:54.691Z,1008.37
2023-04-22T21:50:54.912Z,1008.31
2023-04-22T22:00:58.466Z,1008.23
2023-04-22T22:10:55.319Z,1008.20
2023-04-22T22:20:55.787Z,1008.19
2023-04-22T22:30:55.633Z,1008.17
2023-04-22T22:40:57.884Z,1008.13
2023-04-22T22:50:56.096Z,1008.13
2023-04-22T23:00:56.404Z,1008.24
2023-04-22T23:10:56.389Z,1008.26
2023-04-22T23:20:56.647Z,1008.27
2023-04-22T23:30:56.869Z,1008.39
2023-04-22T23:40:57.123Z,1008.38
2023-04-22T23:50:57.134Z,1008.46
